createdAt,value
2018-01-18T00:00:51.928Z,4.20
2018-01-18T00:03:19.413Z,4.70
2018-01-18T00:05:46.880Z,3.30
2018-01-18T00:08:15.125Z,4.00
2018-01-18T00:10:42.600Z,4.70
2018-01-18T00:13:10.084Z,3.40
2018-01-18T00:15:38.319Z,4.37
2018-01-18T00:18:05.797Z,3.83
2018-01-18T00:20:33.264Z,4.17
2018-01-18T00:23:01.522Z,4.23
2018-01-18T00:25:28.980Z,3.57
2018-01-18T00:27:56.464Z,3.53
2018-01-18T00:30:24.705Z,4.90
2018-01-18T00:32:52.181Z,3.17
2018-01-18T00:35:19.663Z,3.90
2018-01-18T00:37:47.902Z,4.30
2018-01-18T00:40:15.433Z,4.23
2018-01-18T00:42:42.896Z,3.87
2018-01-18T00:45:10.658Z,4.73
2018-01-18T00:47:38.124Z,5.37
2018-01-18T00:50:05.605Z,3.77
2018-01-18T00:52:33.076Z,3.80
2018-01-18T00:55:00.552Z,4.67
2018-01-18T00:57:28.788Z,3.73
2018-01-18T00:59:56.268Z,4.23
2018-01-18T01:02:23.731Z,4.10
2018-01-18T01:04:51.207Z,3.90
2018-01-18T01:07:19.440Z,5.53
2018-01-18T01:09:46.916Z,4.50
2018-01-18T01:12:14.381Z,6.53
2018-01-18T01:14:41.858Z,6.53
2018-01-18T01:17:10.101Z,4.87
2018-01-18T01:19:37.581Z,4.03
2018-01-18T01:22:05.061Z,5.07
2018-01-18T01:24:33.301Z,3.73
2018-01-18T01:27:00.768Z,4.10
2018-01-18T01:29:28.248Z,5.33
2018-01-18T01:31:56.481Z,4.90
2018-01-18T01:34:23.952Z,3.83
2018-01-18T01:36:51.416Z,4.13
2018-01-18T01:39:18.902Z,3.90
2018-01-18T01:41:47.136Z,3.17
2018-01-18T01:44:14.604Z,4.30
2018-01-18T01:46:42.068Z,4.30
2018-01-18T01:49:09.545Z,4.40
2018-01-18T01:51:37.775Z,4.50
2018-01-18T01:54:05.249Z,4.90
2018-01-18T01:56:32.719Z,4.80
2018-01-18T01:59:00.200Z,4.10
2018-01-18T02:01:28.436Z,3.73
2018-01-18T02:03:55.896Z,6.13
2018-01-18T02:06:23.379Z,3.77
2018-01-18T02:08:50.846Z,3.87
2018-01-18T02:11:19.093Z,5.03
2018-01-18T02:13:46.552Z,3.90
2018-01-18T02:16:14.806Z,4.60
2018-01-18T02:18:42.265Z,4.20
2018-01-18T02:21:09.745Z,4.73
2018-01-18T02:23:37.218Z,4.70
2018-01-18T02:26:04.684Z,4.17
2018-01-18T02:28:32.929Z,4.03
2018-01-18T02:31:01.170Z,5.10
2018-01-18T02:33:28.652Z,3.30
2018-01-18T02:35:56.548Z,3.57
2018-01-18T02:38:24.021Z,4.80
2018-01-18T02:40:52.248Z,4.80
2018-01-18T02:43:19.736Z,5.00
2018-01-18T02:45:47.196Z,4.57
2018-01-18T02:48:14.668Z,3.97
2018-01-18T02:50:42.901Z,3.73
2018-01-18T02:53:10.382Z,3.90
2018-01-18T02:55:37.845Z,4.17
2018-01-18T02:58:05.324Z,4.07
2018-01-18T03:00:33.557Z,3.37
2018-01-18T03:03:01.025Z,3.27
2018-01-18T03:05:28.496Z,3.93
2018-01-18T03:07:55.981Z,3.77
2018-01-18T03:10:24.220Z,4.20
2018-01-18T03:12:51.701Z,4.00
2018-01-18T03:15:19.176Z,3.20
2018-01-18T03:17:47.409Z,2.83
2018-01-18T03:20:14.880Z,3.37
2018-01-18T03:22:42.355Z,3.73
2018-01-18T03:25:09.822Z,3.03
2018-01-18T03:27:38.057Z,3.20
2018-01-18T03:30:05.553Z,3.97
2018-01-18T03:32:33.785Z,3.87
2018-01-18T03:35:01.257Z,3.60
2018-01-18T03:37:28.728Z,3.03
2018-01-18T03:39:56.196Z,3.83
2018-01-18T03:42:23.663Z,3.77
2018-01-18T03:44:51.896Z,3.57
2018-01-18T03:47:19.365Z,2.80
2018-01-18T03:49:46.829Z,3.77
2018-01-18T03:52:14.293Z,4.17
2018-01-18T03:54:41.755Z,4.27
2018-01-18T03:57:09.215Z,3.87
2018-01-18T03:59:36.683Z,3.47
2018-01-18T04:02:04.924Z,3.90
2018-01-18T04:04:32.388Z,3.80
2018-01-18T04:06:59.877Z,3.33
2018-01-18T04:09:28.104Z,3.60
2018-01-18T04:11:55.568Z,4.67
2018-01-18T04:14:23.044Z,4.33
2018-01-18T04:16:50.512Z,3.73
2018-01-18T04:19:17.983Z,3.37
2018-01-18T04:21:46.220Z,2.70
2018-01-18T04:24:13.689Z,3.70
2018-01-18T04:26:41.156Z,3.27
2018-01-18T04:29:08.624Z,3.80
2018-01-18T04:31:36.088Z,4.27
2018-01-18T04:34:03.557Z,4.30
2018-01-18T04:36:31.792Z,3.60
2018-01-18T04:38:59.259Z,3.77
2018-01-18T04:41:26.723Z,4.03
2018-01-18T04:43:54.201Z,3.37
2018-01-18T04:46:22.433Z,3.57
2018-01-18T04:48:49.922Z,4.17
2018-01-18T04:51:17.388Z,2.83
2018-01-18T04:53:44.852Z,3.43
2018-01-18T04:56:13.097Z,2.90
2018-01-18T04:58:40.561Z,3.17
2018-01-18T05:01:08.033Z,2.90
2018-01-18T05:03:35.492Z,2.50
2018-01-18T05:06:02.972Z,2.47
2018-01-18T05:08:31.212Z,2.27
2018-01-18T05:10:58.691Z,2.57
2018-01-18T05:13:26.153Z,2.60
2018-01-18T05:15:53.624Z,2.57
2018-01-18T05:18:21.889Z,2.90
2018-01-18T05:20:49.369Z,2.33
2018-01-18T05:23:16.828Z,3.10
2018-01-18T05:25:44.290Z,3.00
2018-01-18T05:28:11.758Z,3.03
2018-01-18T05:30:39.221Z,3.03
2018-01-18T05:33:06.694Z,3.43
2018-01-18T05:35:34.160Z,3.33
2018-01-18T05:38:01.629Z,3.40
2018-01-18T05:40:29.093Z,3.40
2018-01-18T05:42:56.568Z,5.70
2018-01-18T05:45:24.033Z,2.70
2018-01-18T05:47:52.284Z,7.67
2018-01-18T05:50:19.748Z,4.97
2018-01-18T05:52:47.213Z,2.17
2018-01-18T05:55:14.686Z,1.73
2018-01-18T05:57:42.916Z,1.77
2018-01-18T06:00:10.388Z,1.80
2018-01-18T06:02:37.848Z,1.70
2018-01-18T06:05:05.320Z,1.63
2018-01-18T06:07:32.784Z,2.53
2018-01-18T06:10:00.256Z,2.17
2018-01-18T06:12:28.484Z,2.40
2018-01-18T06:14:55.973Z,2.27
2018-01-18T06:17:23.437Z,1.70
2018-01-18T06:19:51.672Z,1.60
2018-01-18T06:22:19.144Z,1.90
2018-01-18T06:24:46.608Z,2.20
2018-01-18T06:27:14.085Z,3.33
2018-01-18T06:29:41.548Z,2.47
2018-01-18T06:32:09.787Z,2.73
2018-01-18T06:34:37.252Z,1.43
2018-01-18T06:37:04.724Z,1.60
2018-01-18T06:39:32.192Z,3.77
2018-01-18T06:41:59.665Z,2.33
2018-01-18T06:44:27.896Z,2.10
2018-01-18T06:46:55.369Z,1.87
2018-01-18T06:49:22.823Z,1.60
2018-01-18T06:51:50.333Z,2.20
2018-01-18T06:54:17.836Z,2.63
2018-01-18T06:56:45.265Z,2.60
2018-01-18T06:59:12.752Z,1.80
2018-01-18T07:01:40.217Z,1.70
2018-01-18T07:04:07.685Z,1.87
2018-01-18T07:06:35.156Z,1.80
2018-01-18T07:09:02.625Z,2.10
2018-01-18T07:11:30.860Z,2.03
2018-01-18T07:13:58.328Z,2.10
2018-01-18T07:16:25.788Z,2.70
2018-01-18T07:18:53.258Z,2.60
2018-01-18T07:21:20.725Z,3.77
2018-01-18T07:23:48.952Z,2.53
2018-01-18T07:26:16.428Z,4.53
2018-01-18T07:28:43.896Z,13.37
2018-01-18T07:31:11.373Z,11.03
2018-01-18T07:33:39.605Z,7.43
2018-01-18T07:36:07.102Z,4.97
2018-01-18T07:38:34.564Z,2.80
2018-01-18T07:41:02.796Z,2.90
2018-01-18T07:43:30.277Z,1.97
2018-01-18T07:45:57.744Z,5.60
2018-01-18T07:48:25.216Z,4.93
2018-01-18T07:50:53.444Z,3.73
2018-01-18T07:53:20.929Z,7.67
2018-01-18T07:55:48.388Z,4.80
2018-01-18T07:58:15.856Z,2.17
2018-01-18T08:00:43.321Z,1.33
2018-01-18T08:03:16.504Z,1.77
2018-01-18T08:05:43.967Z,2.33
2018-01-18T08:08:11.457Z,1.50
2018-01-18T08:10:38.924Z,1.80
2018-01-18T08:13:06.392Z,1.93
2018-01-18T08:15:33.865Z,1.30
2018-01-18T08:18:01.328Z,3.27
2018-01-18T08:20:28.801Z,1.60
2018-01-18T08:22:56.268Z,1.90
2018-01-18T08:25:23.741Z,2.30
2018-01-18T08:27:51.972Z,1.87
2018-01-18T08:30:19.449Z,1.70
2018-01-18T08:32:46.912Z,2.03
2018-01-18T08:35:14.384Z,2.13
2018-01-18T08:37:41.852Z,1.70
2018-01-18T08:40:10.091Z,1.60
2018-01-18T08:42:37.557Z,2.50
2018-01-18T08:45:05.033Z,1.70
2018-01-18T08:47:32.509Z,2.17
2018-01-18T08:50:00.745Z,2.20
2018-01-18T08:52:28.220Z,4.13
2018-01-18T08:54:55.695Z,4.30
2018-01-18T08:57:23.165Z,3.47
2018-01-18T08:59:51.396Z,2.80
2018-01-18T09:02:18.873Z,2.63
2018-01-18T09:04:46.344Z,2.63
2018-01-18T09:07:13.816Z,2.60
2018-01-18T09:09:42.042Z,3.27
2018-01-18T09:12:09.508Z,3.50
2018-01-18T09:14:36.972Z,2.70
2018-01-18T09:17:04.457Z,3.50
2018-01-18T09:19:31.912Z,3.10
2018-01-18T09:22:00.140Z,3.30
2018-01-18T09:24:27.616Z,2.20
2018-01-18T09:26:55.085Z,2.87
2018-01-18T09:29:22.551Z,2.90
2018-01-18T09:31:50.018Z,2.90
2018-01-18T09:34:17.511Z,3.17
2018-01-18T09:36:44.977Z,2.80
2018-01-18T09:39:12.461Z,2.70
2018-01-18T09:41:39.924Z,4.47
2018-01-18T09:44:07.401Z,3.07
2018-01-18T09:46:34.870Z,2.53
2018-01-18T09:49:03.125Z,3.40
2018-01-18T09:51:30.592Z,2.10
2018-01-18T09:53:58.108Z,3.77
2018-01-18T09:56:25.580Z,3.30
2018-01-18T09:58:53.048Z,4.30
2018-01-18T10:01:20.516Z,2.83
2018-01-18T10:03:47.981Z,3.33
2018-01-18T10:06:15.460Z,2.90
2018-01-18T10:08:43.691Z,3.67
2018-01-18T10:11:11.176Z,2.37
2018-01-18T10:13:38.640Z,2.70
2018-01-18T10:16:06.100Z,2.60
2018-01-18T10:18:33.568Z,2.77
2018-01-18T10:21:01.798Z,1.90
2018-01-18T10:23:29.267Z,1.70
2018-01-18T10:25:56.732Z,2.07
2018-01-18T10:28:24.204Z,1.60
2018-01-18T10:30:51.672Z,1.77
2018-01-18T10:33:19.145Z,2.67
2018-01-18T10:35:47.372Z,1.50
2018-01-18T10:38:14.837Z,3.87
2018-01-18T10:40:42.317Z,1.90
2018-01-18T10:43:09.785Z,1.77
2018-01-18T10:45:38.026Z,1.40
2018-01-18T10:48:05.497Z,1.77
2018-01-18T10:50:32.969Z,1.77
2018-01-18T10:53:00.427Z,2.27
2018-01-18T10:55:27.904Z,2.00
2018-01-18T10:57:56.129Z,2.07
2018-01-18T11:00:23.604Z,1.93
2018-01-18T11:02:51.063Z,1.60
2018-01-18T11:05:18.533Z,1.67
2018-01-18T11:07:46.415Z,1.40
2018-01-18T11:10:14.641Z,1.47
2018-01-18T11:12:42.112Z,1.57
2018-01-18T11:15:09.581Z,1.90
2018-01-18T11:17:37.068Z,2.10
2018-01-18T11:20:05.294Z,1.47
2018-01-18T11:22:32.769Z,1.77
2018-01-18T11:25:00.232Z,1.30
2018-01-18T11:27:27.729Z,1.57
2018-01-18T11:29:55.192Z,1.50
2018-01-18T11:32:22.658Z,1.83
2018-01-18T11:34:50.125Z,1.47
2018-01-18T11:37:17.597Z,1.70
2018-01-18T11:39:45.065Z,1.50
2018-01-18T11:42:12.527Z,1.30
2018-01-18T11:44:40.001Z,1.80
2018-01-18T11:47:07.464Z,2.60
2018-01-18T11:49:34.953Z,2.30
2018-01-18T11:52:02.421Z,2.03
2018-01-18T11:54:29.885Z,1.93
2018-01-18T11:56:57.360Z,1.53
2018-01-18T11:59:24.825Z,1.27
2018-01-18T12:01:52.293Z,1.27
2018-01-18T12:04:19.756Z,1.40
2018-01-18T12:06:47.242Z,1.20
2018-01-18T12:09:14.706Z,1.33
2018-01-18T12:11:42.175Z,1.50
2018-01-18T12:14:09.658Z,1.67
2018-01-18T12:16:37.129Z,1.10
2018-01-18T12:19:04.601Z,1.37
2018-01-18T12:21:32.080Z,1.67
2018-01-18T12:23:59.550Z,1.70
2018-01-18T12:26:27.777Z,1.60
2018-01-18T12:28:55.254Z,1.83
2018-01-18T12:31:22.721Z,1.67
2018-01-18T12:33:50.200Z,1.70
2018-01-18T12:36:18.433Z,1.97
2018-01-18T12:38:45.905Z,1.70
2018-01-18T12:41:13.368Z,1.70
2018-01-18T12:43:40.839Z,1.60
2018-01-18T12:46:08.300Z,1.60
2018-01-18T12:48:35.768Z,1.87
2018-01-18T12:51:04.006Z,1.60
2018-01-18T12:53:31.480Z,1.47
2018-01-18T12:55:58.976Z,1.87
2018-01-18T12:58:26.438Z,2.00
2018-01-18T13:00:53.909Z,1.70
2018-01-18T13:03:21.368Z,2.20
2018-01-18T13:05:48.837Z,1.80
2018-01-18T13:08:16.310Z,2.10
2018-01-18T13:10:43.781Z,1.87
2018-01-18T13:13:11.267Z,1.70
2018-01-18T13:15:38.732Z,1.57
2018-01-18T13:18:06.973Z,2.13
2018-01-18T13:20:34.440Z,2.10
2018-01-18T13:23:01.904Z,2.03
2018-01-18T13:25:29.397Z,1.80
2018-01-18T13:27:56.857Z,2.17
2018-01-18T13:30:24.325Z,2.50
2018-01-18T13:32:51.796Z,3.03
2018-01-18T13:35:19.260Z,1.83
2018-01-18T13:37:46.735Z,2.27
2018-01-18T13:40:14.193Z,1.80
2018-01-18T13:42:41.669Z,1.90
2018-01-18T13:45:09.137Z,2.30
2018-01-18T13:47:36.845Z,2.10
2018-01-18T13:50:04.304Z,1.97
2018-01-18T13:52:31.781Z,1.93
2018-01-18T13:54:59.248Z,1.80
2018-01-18T13:57:26.713Z,1.90
2018-01-18T13:59:54.188Z,1.63
2018-01-18T14:02:21.660Z,1.90
2018-01-18T14:04:49.904Z,8.23
2018-01-18T14:07:17.363Z,3.00
2018-01-18T14:09:44.832Z,3.27
2018-01-18T14:12:12.308Z,4.00
2018-01-18T14:14:40.540Z,2.50
2018-01-18T14:17:08.010Z,5.00
2018-01-18T14:19:35.500Z,2.90
2018-01-18T14:22:02.960Z,6.13
2018-01-18T14:24:30.436Z,3.30
2018-01-18T14:26:57.903Z,19.57
2018-01-18T14:29:25.372Z,5.97
2018-01-18T14:31:52.841Z,6.07
2018-01-18T14:34:20.324Z,5.77
2018-01-18T14:36:47.811Z,2.37
2018-01-18T14:39:16.044Z,1.70
2018-01-18T14:41:43.515Z,1.40
2018-01-18T14:44:10.976Z,1.87
2018-01-18T14:46:38.449Z,2.00
2018-01-18T14:49:06.688Z,1.60
2018-01-18T14:51:34.928Z,5.07
2018-01-18T14:54:02.392Z,2.03
2018-01-18T14:56:29.865Z,2.70
2018-01-18T14:58:57.329Z,1.57
2018-01-18T15:01:24.808Z,1.80
2018-01-18T15:03:52.276Z,2.03
2018-01-18T15:06:19.736Z,1.93
2018-01-18T15:08:47.204Z,1.90
2018-01-18T15:11:15.129Z,1.87
2018-01-18T15:13:42.599Z,1.77
2018-01-18T15:16:10.086Z,1.70
2018-01-18T15:18:37.688Z,2.10
2018-01-18T15:21:05.070Z,1.50
2018-01-18T15:23:32.545Z,1.80
2018-01-18T15:26:00.007Z,1.37
2018-01-18T15:28:27.483Z,1.70
2018-01-18T15:30:54.940Z,2.10
2018-01-18T15:33:22.419Z,2.50
2018-01-18T15:35:50.648Z,1.80
2018-01-18T15:38:18.111Z,1.90
2018-01-18T15:40:45.576Z,2.23
2018-01-18T15:43:13.041Z,1.90
2018-01-18T15:45:40.508Z,2.27
2018-01-18T15:48:07.972Z,1.60
2018-01-18T15:50:36.230Z,1.50
2018-01-18T15:53:03.695Z,1.70
2018-01-18T15:55:31.162Z,1.50
2018-01-18T15:57:58.629Z,1.50
2018-01-18T16:00:26.864Z,1.50
2018-01-18T16:02:54.332Z,1.47
2018-01-18T16:05:21.817Z,1.70
2018-01-18T16:07:49.281Z,1.20
2018-01-18T16:10:17.521Z,1.23
2018-01-18T16:12:44.981Z,1.50
2018-01-18T16:15:12.449Z,1.37
2018-01-18T16:17:39.908Z,1.43
2018-01-18T16:20:07.384Z,1.80
2018-01-18T16:22:35.616Z,1.50
2018-01-18T16:25:03.086Z,1.50
2018-01-18T16:27:30.549Z,1.50
2018-01-18T16:29:58.021Z,1.57
2018-01-18T16:32:25.489Z,1.40
2018-01-18T16:34:52.965Z,1.70
2018-01-18T16:37:21.196Z,1.97
2018-01-18T16:39:48.673Z,2.33
2018-01-18T16:42:16.141Z,1.73
2018-01-18T16:44:44.376Z,1.67
2018-01-18T16:47:11.841Z,1.40
2018-01-18T16:49:39.317Z,2.03
2018-01-18T16:52:06.780Z,1.80
2018-01-18T16:54:34.268Z,2.50
2018-01-18T16:57:02.524Z,3.70
2018-01-18T16:59:30.010Z,4.00
2018-01-18T17:01:57.486Z,14.43
2018-01-18T17:04:24.956Z,2.13
2018-01-18T17:06:52.423Z,8.80
2018-01-18T17:09:19.911Z,3.70
2018-01-18T17:11:47.377Z,3.70
2018-01-18T17:14:14.835Z,2.10
2018-01-18T17:16:43.084Z,2.30
2018-01-18T17:19:10.548Z,3.13
2018-01-18T17:21:38.027Z,2.17
2018-01-18T17:24:05.484Z,3.30
2018-01-18T17:26:32.952Z,3.13
2018-01-18T17:29:01.193Z,2.07
2018-01-18T17:31:28.661Z,1.80
2018-01-18T17:33:56.120Z,1.63
2018-01-18T17:36:23.594Z,2.23
2018-01-18T17:38:51.895Z,2.70
2018-01-18T17:41:19.342Z,2.17
2018-01-18T17:43:47.572Z,3.63
2018-01-18T17:46:15.045Z,1.70
2018-01-18T17:48:42.509Z,1.63
2018-01-18T17:51:09.986Z,5.43
2018-01-18T17:53:38.218Z,2.77
2018-01-18T17:56:05.688Z,3.00
2018-01-18T17:58:33.148Z,2.93
2018-01-18T18:01:00.639Z,3.07
2018-01-18T18:03:28.864Z,1.83
2018-01-18T18:05:56.340Z,2.57
2018-01-18T18:08:23.813Z,2.40
2018-01-18T18:10:51.280Z,2.30
2018-01-18T18:13:18.743Z,2.60
2018-01-18T18:15:46.980Z,1.63
2018-01-18T18:18:14.448Z,2.10
2018-01-18T18:20:41.928Z,1.43
2018-01-18T18:23:09.386Z,1.83
2018-01-18T18:25:36.856Z,2.03
2018-01-18T18:28:04.324Z,1.60
2018-01-18T18:30:32.560Z,1.70
2018-01-18T18:33:00.034Z,1.80
2018-01-18T18:35:27.508Z,2.10
2018-01-18T18:37:55.737Z,1.87
2018-01-18T18:40:23.251Z,2.00
2018-01-18T18:42:51.477Z,2.20
2018-01-18T18:45:18.953Z,2.00
2018-01-18T18:47:47.091Z,2.03
2018-01-18T18:50:14.565Z,2.00
2018-01-18T18:52:42.100Z,1.90
2018-01-18T18:55:09.566Z,2.50
2018-01-18T18:57:37.082Z,2.83
2018-01-18T19:00:05.309Z,2.20
2018-01-18T19:02:32.777Z,2.00
2018-01-18T19:05:00.249Z,2.40
2018-01-18T19:07:27.723Z,1.97
2018-01-18T19:09:55.187Z,2.70
2018-01-18T19:12:23.428Z,2.40
2018-01-18T19:14:50.896Z,2.07
2018-01-18T19:17:18.410Z,2.63
2018-01-18T19:19:45.868Z,2.63
2018-01-18T19:22:13.346Z,3.00
2018-01-18T19:24:40.851Z,2.53
2018-01-18T19:27:08.316Z,2.00
2018-01-18T19:29:36.590Z,2.70
2018-01-18T19:32:04.056Z,2.63
2018-01-18T19:34:32.283Z,2.80
2018-01-18T19:36:59.808Z,2.77
2018-01-18T19:39:27.269Z,3.43
2018-01-18T19:41:54.800Z,3.57
2018-01-18T19:44:22.264Z,3.37
2018-01-18T19:46:50.556Z,3.27
2018-01-18T19:49:18.784Z,4.13
2018-01-18T19:51:46.253Z,5.00
2018-01-18T19:54:13.717Z,4.47
2018-01-18T19:56:41.193Z,4.90
2018-01-18T19:59:17.508Z,31.67
2018-01-18T20:01:45.049Z,70.60
2018-01-18T20:04:12.514Z,10.63
2018-01-18T20:06:40.864Z,8.07
2018-01-18T20:09:09.144Z,7.87
2018-01-18T20:11:37.428Z,7.43
2018-01-18T20:14:04.910Z,179.07
2018-01-18T20:16:32.393Z,191.60
2018-01-18T20:18:59.865Z,178.17
2018-01-18T20:21:27.353Z,122.90
2018-01-18T20:23:55.589Z,50.53
2018-01-18T20:26:23.068Z,85.13
2018-01-18T20:28:50.582Z,50.37
2018-01-18T20:31:18.102Z,13.10
2018-01-18T20:33:46.341Z,23.30
2018-01-18T20:36:13.859Z,9.63
2018-01-18T20:38:41.371Z,7.60
2018-01-18T20:41:08.883Z,10.73
2018-01-18T20:43:36.356Z,13.87
2018-01-18T20:46:03.871Z,11.43
2018-01-18T20:48:32.165Z,7.03
2018-01-18T20:50:59.672Z,6.30
2018-01-18T20:53:27.145Z,6.57
2018-01-18T20:55:54.655Z,7.80
2018-01-18T20:58:22.162Z,8.57
2018-01-18T21:00:49.620Z,8.93
2018-01-18T21:03:17.139Z,8.00
2018-01-18T21:05:44.605Z,27.87
2018-01-18T21:08:12.104Z,11.17
2018-01-18T21:10:39.574Z,14.53
2018-01-18T21:13:07.856Z,10.80
2018-01-18T21:15:36.138Z,9.03
2018-01-18T21:18:03.644Z,8.47
2018-01-18T21:20:31.160Z,7.17
2018-01-18T21:22:59.384Z,6.63
2018-01-18T21:25:26.852Z,7.63
2018-01-18T21:27:54.326Z,9.07
2018-01-18T21:30:21.804Z,13.77
2018-01-18T21:32:50.088Z,13.13
2018-01-18T21:35:18.329Z,20.17
2018-01-18T21:37:45.797Z,14.97
2018-01-18T21:40:13.276Z,10.17
2018-01-18T21:42:41.550Z,10.63
2018-01-18T21:45:09.790Z,10.27
2018-01-18T21:47:37.260Z,9.47
2018-01-18T21:50:04.791Z,8.97
2018-01-18T21:52:32.307Z,9.13
2018-01-18T21:55:00.574Z,8.70
2018-01-18T21:57:28.863Z,8.93
2018-01-18T21:59:57.096Z,10.47
2018-01-18T22:02:24.574Z,8.07
2018-01-18T22:04:52.045Z,11.33
2018-01-18T22:07:20.330Z,13.77
2018-01-18T22:09:47.765Z,8.57
2018-01-18T22:12:15.240Z,7.70
2018-01-18T22:14:43.472Z,8.00
2018-01-18T22:17:11.115Z,7.93
2018-01-18T22:19:38.581Z,8.70
2018-01-18T22:22:06.052Z,9.67
2018-01-18T22:24:33.525Z,8.70
2018-01-18T22:27:01.012Z,7.83
2018-01-18T22:29:29.240Z,8.10
2018-01-18T22:31:56.705Z,7.00
2018-01-18T22:34:24.196Z,7.17
2018-01-18T22:36:52.428Z,7.17
2018-01-18T22:39:19.908Z,8.10
2018-01-18T22:41:47.377Z,8.90
2018-01-18T22:44:14.848Z,7.30
2018-01-18T22:46:43.080Z,7.70
2018-01-18T22:49:10.561Z,8.87
2018-01-18T22:51:38.793Z,8.33
2018-01-18T22:54:06.271Z,8.77
2018-01-18T22:56:33.733Z,9.83
2018-01-18T22:59:01.221Z,8.37
2018-01-18T23:01:28.692Z,9.43
2018-01-18T23:03:56.926Z,7.93
2018-01-18T23:06:24.408Z,7.97
2018-01-18T23:08:51.880Z,8.87
2018-01-18T23:11:19.356Z,7.50
2018-01-18T23:13:47.588Z,7.37
2018-01-18T23:16:15.060Z,7.67
2018-01-18T23:18:42.537Z,8.30
2018-01-18T23:21:10.777Z,7.67
2018-01-18T23:23:38.258Z,8.30
2018-01-18T23:26:05.728Z,7.77
2018-01-18T23:28:33.952Z,8.13
2018-01-18T23:31:01.429Z,7.57
2018-01-18T23:33:28.904Z,6.97
2018-01-18T23:35:56.389Z,7.87
2018-01-18T23:38:24.619Z,7.20
2018-01-18T23:40:52.084Z,7.13
2018-01-18T23:43:19.562Z,7.30
2018-01-18T23:45:47.033Z,7.83
2018-01-18T23:48:15.272Z,6.83
2018-01-18T23:50:42.741Z,7.53
2018-01-18T23:53:10.227Z,7.60
2018-01-18T23:55:38.460Z,7.30
2018-01-18T23:58:05.932Z,7.47
